Time;durP1;ratioP1;P1;durP2;ratioP2;P2;SDS_P1;SDS_P2;PMS_P1;PMS_P2;Temp;Humidity;BMP_temperature;BMP_pressure;BME280_temperature;BME280_humidity;BME280_pressure;Samples;Min_cycle;Max_cycle;Signal;HPM_P1;HPM_P2
2022/05/10 00:01:25;;;;;;;5.80;3.10;;;14.00;99.90;;;;;;4933893;28;20624;-60
2022/05/10 00:03:53;;;;;;;5.10;3.20;;;14.00;99.90;;;;;;4944735;28;20264;-60
2022/05/10 00:06:21;;;;;;;4.90;3.13;;;13.90;99.90;;;;;;4948813;28;20232;-61
2022/05/10 00:08:48;;;;;;;9.13;3.70;;;13.80;99.90;;;;;;4927826;28;20302;-60
2022/05/10 00:11:17;;;;;;;4.47;3.33;;;13.80;99.90;;;;;;4938119;28;20208;-62
2022/05/10 00:13:44;;;;;;;5.18;3.53;;;13.80;99.90;;;;;;4934444;28;20212;-60
2022/05/10 00:16:14;;;;;;;5.72;3.40;;;13.70;99.90;;;;;;4941963;28;20231;-60
2022/05/10 00:18:42;;;;;;;4.97;3.30;;;13.80;99.90;;;;;;4945962;28;20204;-60
2022/05/10 00:21:10;;;;;;;6.22;3.72;;;13.80;99.90;;;;;;4953080;28;20254;-60
2022/05/10 00:23:37;;;;;;;9.50;3.40;;;13.70;99.90;;;;;;4923785;28;20209;-60
2022/05/10 00:26:04;;;;;;;5.43;3.42;;;13.70;99.90;;;;;;4941730;28;20221;-60
2022/05/10 00:28:32;;;;;;;3.70;3.22;;;13.60;99.90;;;;;;4924418;28;20244;-60
2022/05/10 00:30:59;;;;;;;6.88;3.35;;;13.70;99.90;;;;;;4944244;28;20217;-60
2022/05/10 00:33:29;;;;;;;6.10;3.25;;;13.70;99.90;;;;;;4942569;28;20219;-60
2022/05/10 00:35:57;;;;;;;4.57;2.88;;;13.70;99.90;;;;;;4955351;28;20224;-60
2022/05/10 00:38:29;;;;;;;9.27;3.60;;;13.70;99.90;;;;;;4942801;28;20218;-60
2022/05/10 00:40:56;;;;;;;7.88;2.78;;;13.60;99.90;;;;;;4928215;28;20552;-60
2022/05/10 00:43:29;;;;;;;5.43;3.70;;;13.70;99.90;;;;;;4939693;28;20212;-60
2022/05/10 00:46:01;;;;;;;5.95;3.45;;;13.80;99.90;;;;;;4939974;28;20242;-60
2022/05/10 00:48:33;;;;;;;7.88;3.20;;;13.80;99.90;;;;;;4923115;28;20215;-61
2022/05/10 00:51:11;;;;;;;5.53;3.67;;;13.60;99.90;;;;;;4949584;28;20292;-60
2022/05/10 00:53:51;;;;;;;7.95;3.67;;;13.60;99.90;;;;;;4925897;28;20208;-60
2022/05/10 00:56:26;;;;;;;4.43;3.58;;;13.60;99.90;;;;;;4922118;28;20208;-60
2022/05/10 00:58:59;;;;;;;6.07;3.13;;;13.50;99.90;;;;;;4938198;28;20210;-60
2022/05/10 01:01:32;;;;;;;5.53;3.10;;;13.50;99.90;;;;;;4936606;28;20211;-59
2022/05/10 01:04:08;;;;;;;6.38;3.42;;;13.50;99.90;;;;;;4932242;28;20220;-61
2022/05/10 01:06:40;;;;;;;4.22;3.00;;;13.50;99.90;;;;;;4944895;28;20224;-60
2022/05/10 01:09:13;;;;;;;8.73;3.38;;;13.40;99.90;;;;;;4927075;28;20226;-60
2022/05/10 01:11:45;;;;;;;5.68;3.42;;;13.50;99.90;;;;;;4920123;28;20874;-60
2022/05/10 01:14:17;;;;;;;4.25;3.53;;;13.50;99.90;;;;;;4941542;28;20204;-60
2022/05/10 01:16:45;;;;;;;5.93;3.60;;;13.40;99.90;;;;;;4935517;28;20693;-60
2022/05/10 01:19:14;;;;;;;7.47;3.35;;;13.40;99.90;;;;;;4930258;28;20208;-60
2022/05/10 01:22:00;;;;;;;4.20;3.17;;;13.30;99.90;;;;;;4943374;28;20205;-60
2022/05/10 01:24:42;;;;;;;8.50;3.35;;;13.30;99.90;;;;;;4946940;28;20215;-60
2022/05/10 01:27:39;;;;;;;5.97;3.63;;;13.20;99.90;;;;;;4925111;28;20737;-60
2022/05/10 01:30:10;;;;;;;4.85;3.25;;;13.20;99.90;;;;;;4938260;28;20211;-60
2022/05/10 01:35:32;;;;;;;5.78;3.30;;;13.20;99.90;;;;;;4940025;28;20239;-60
2022/05/10 01:38:03;;;;;;;5.00;3.17;;;13.20;99.90;;;;;;4947478;28;20347;-60
2022/05/10 01:40:36;;;;;;;4.95;3.28;;;13.20;99.90;;;;;;4951835;28;20211;-60
2022/05/10 01:43:09;;;;;;;3.78;3.28;;;13.30;99.90;;;;;;4915310;28;20205;-60
2022/05/10 01:45:41;;;;;;;5.20;3.25;;;13.20;99.90;;;;;;4952701;28;20223;-60
2022/05/10 01:48:11;;;;;;;6.55;3.45;;;13.10;99.90;;;;;;4935529;28;20573;-60
2022/05/10 01:50:43;;;;;;;6.70;3.75;;;13.10;99.90;;;;;;4929521;28;20251;-60
2022/05/10 01:53:13;;;;;;;5.25;3.20;;;13.20;99.90;;;;;;4951369;28;20200;-60
2022/05/10 01:55:42;;;;;;;7.45;3.63;;;13.10;99.90;;;;;;4949551;28;20311;-60
2022/05/10 01:58:11;;;;;;;5.10;3.53;;;13.20;99.90;;;;;;4930578;28;20206;-60
2022/05/10 02:00:42;;;;;;;4.88;3.63;;;13.10;99.90;;;;;;4940284;28;20680;-60
2022/05/10 02:03:17;;;;;;;5.50;3.20;;;13.10;99.90;;;;;;4936156;28;21947;-60
2022/05/10 02:05:52;;;;;;;5.95;3.70;;;13.10;99.90;;;;;;4935129;28;20227;-60
2022/05/10 02:08:28;;;;;;;6.38;2.60;;;13.10;99.90;;;;;;4949237;28;20288;-60
2022/05/10 02:11:00;;;;;;;10.27;4.13;;;13.10;99.90;;;;;;4936456;28;20218;-60
2022/05/10 02:13:31;;;;;;;6.15;3.42;;;13.10;99.90;;;;;;4943675;28;20235;-60
2022/05/10 02:16:02;;;;;;;5.60;3.22;;;13.10;99.90;;;;;;4941284;28;20204;-60
2022/05/10 02:18:34;;;;;;;6.95;3.30;;;13.10;99.90;;;;;;4940540;28;20208;-60
2022/05/10 02:21:08;;;;;;;5.00;3.25;;;13.10;99.90;;;;;;4930200;28;20219;-60
2022/05/10 02:23:41;;;;;;;10.35;3.33;;;13.10;99.90;;;;;;4954590;28;20222;-60
2022/05/10 02:26:12;;;;;;;5.65;3.63;;;13.10;99.90;;;;;;4940579;28;20243;-60
2022/05/10 02:28:45;;;;;;;6.70;3.08;;;13.00;99.90;;;;;;4955083;28;20546;-60
2022/05/10 02:31:20;;;;;;;7.38;3.63;;;13.00;99.90;;;;;;4952561;28;20341;-60
2022/05/10 02:33:48;;;;;;;7.45;3.30;;;13.00;99.90;;;;;;4947070;28;20210;-60
2022/05/10 02:36:15;;;;;;;7.43;3.20;;;13.00;99.90;;;;;;4947947;28;20242;-60
2022/05/10 02:38:42;;;;;;;6.72;3.47;;;12.90;99.90;;;;;;4960789;28;20206;-60
2022/05/10 02:41:13;;;;;;;9.80;3.55;;;12.90;99.90;;;;;;4970972;28;20180;-60
2022/05/10 02:43:47;;;;;;;4.72;3.20;;;13.00;99.90;;;;;;4973534;28;20256;-59
2022/05/10 02:46:16;;;;;;;8.80;3.45;;;12.90;99.90;;;;;;4955684;28;20989;-60
2022/05/10 02:48:44;;;;;;;6.40;3.80;;;13.00;99.90;;;;;;4947217;28;20220;-60
2022/05/10 02:51:11;;;;;;;4.55;3.65;;;12.90;99.90;;;;;;4955593;28;20208;-60
2022/05/10 02:53:38;;;;;;;6.72;3.65;;;12.90;99.90;;;;;;4945157;28;20228;-60
2022/05/10 02:56:07;;;;;;;6.22;3.63;;;12.90;99.90;;;;;;4950738;28;20200;-60
2022/05/10 02:58:39;;;;;;;5.68;3.65;;;12.90;99.90;;;;;;4940777;28;20625;-60
2022/05/10 03:01:11;;;;;;;7.85;3.63;;;12.90;99.90;;;;;;4913934;28;20704;-60
2022/05/10 03:03:39;;;;;;;8.07;3.65;;;12.90;99.90;;;;;;4938808;28;20235;-60
2022/05/10 03:06:06;;;;;;;6.95;3.40;;;12.90;99.90;;;;;;4939661;28;20331;-61
2022/05/10 03:08:33;;;;;;;3.88;3.47;;;12.90;99.90;;;;;;4942122;28;20216;-60
2022/05/10 03:11:00;;;;;;;6.38;3.72;;;12.90;99.90;;;;;;4951032;28;20208;-60
2022/05/10 03:13:27;;;;;;;7.78;3.85;;;12.90;99.90;;;;;;4935990;28;20212;-60
2022/05/10 03:15:54;;;;;;;7.07;3.72;;;12.90;99.90;;;;;;4935622;28;20216;-60
2022/05/10 03:18:21;;;;;;;5.80;3.50;;;12.90;99.90;;;;;;4951894;28;20541;-60
2022/05/10 03:20:50;;;;;;;7.10;3.70;;;12.90;99.90;;;;;;4938478;28;20327;-60
2022/05/10 03:23:17;;;;;;;5.85;3.75;;;13.00;99.90;;;;;;4926538;28;20204;-60
2022/05/10 03:25:44;;;;;;;5.85;4.25;;;12.90;99.90;;;;;;4948911;28;20746;-60
2022/05/10 03:28:11;;;;;;;5.13;4.10;;;12.90;99.90;;;;;;4931673;28;20221;-60
2022/05/10 03:30:38;;;;;;;6.65;3.97;;;13.00;99.90;;;;;;4924798;28;20271;-60
2022/05/10 03:33:05;;;;;;;6.50;3.80;;;13.00;99.90;;;;;;4952378;28;20204;-60
2022/05/10 03:35:32;;;;;;;6.15;3.70;;;12.90;99.90;;;;;;4935095;28;20213;-60
2022/05/10 03:38:01;;;;;;;7.80;3.83;;;13.00;99.90;;;;;;4933644;28;20835;-60
2022/05/10 03:40:28;;;;;;;6.35;3.70;;;12.90;99.90;;;;;;4948307;28;20585;-60
2022/05/10 03:42:55;;;;;;;7.45;4.03;;;12.90;99.90;;;;;;4943086;28;20204;-60
2022/05/10 03:45:24;;;;;;;8.80;3.80;;;12.90;99.90;;;;;;4943840;28;20666;-60
2022/05/10 03:47:52;;;;;;;5.18;3.78;;;12.90;99.90;;;;;;4943733;28;20775;-60
2022/05/10 03:50:21;;;;;;;6.95;4.10;;;12.90;99.90;;;;;;4933275;28;20224;-60
2022/05/10 03:52:49;;;;;;;5.45;3.40;;;13.00;99.90;;;;;;4938147;28;20204;-60
2022/05/10 03:55:20;;;;;;;9.05;4.38;;;13.00;99.90;;;;;;4945217;28;20239;-60
2022/05/10 03:57:48;;;;;;;3.90;3.45;;;13.10;99.90;;;;;;4931370;28;20207;-59
2022/05/10 04:00:18;;;;;;;5.97;4.10;;;13.20;99.90;;;;;;4934855;28;20208;-61
2022/05/10 04:02:46;;;;;;;5.00;3.90;;;13.10;99.90;;;;;;4932534;28;20298;-60
2022/05/10 04:05:14;;;;;;;6.32;3.78;;;13.10;99.90;;;;;;4940958;28;20210;-60
2022/05/10 04:07:41;;;;;;;6.22;4.47;;;13.20;99.90;;;;;;4937536;28;20234;-61
2022/05/10 04:10:09;;;;;;;8.65;3.97;;;13.20;99.90;;;;;;4935690;28;20231;-60
2022/05/10 04:12:38;;;;;;;9.93;4.05;;;13.30;99.90;;;;;;4962821;28;20204;-60
2022/05/10 04:15:09;;;;;;;6.97;4.13;;;13.30;99.90;;;;;;4932942;28;20200;-60
2022/05/10 04:17:36;;;;;;;5.55;3.80;;;13.30;99.90;;;;;;4939784;28;20204;-60
2022/05/10 04:20:06;;;;;;;7.65;4.00;;;13.30;99.90;;;;;;4946579;28;20323;-60
2022/05/10 04:22:33;;;;;;;7.40;4.40;;;13.30;99.90;;;;;;4942790;28;20204;-60
2022/05/10 04:25:00;;;;;;;9.20;4.10;;;13.30;99.90;;;;;;4926684;28;20214;-60
2022/05/10 04:27:28;;;;;;;7.18;3.92;;;13.30;99.90;;;;;;4950681;28;20326;-61
2022/05/10 04:29:57;;;;;;;7.38;4.32;;;13.30;99.90;;;;;;4926465;28;20314;-60
2022/05/10 04:32:25;;;;;;;5.65;3.90;;;13.30;99.90;;;;;;4954512;28;20212;-60
2022/05/10 04:34:51;;;;;;;7.05;4.50;;;13.30;99.90;;;;;;4935814;28;20204;-60
2022/05/10 04:37:18;;;;;;;5.95;3.90;;;13.30;99.90;;;;;;4938082;28;20204;-60
2022/05/10 04:42:30;;;;;;;5.93;3.65;;;13.30;99.90;;;;;;4934475;28;20362;-61
2022/05/10 04:45:00;;;;;;;6.15;3.88;;;13.40;99.90;;;;;;4943330;28;22266;-60
2022/05/10 04:47:27;;;;;;;6.97;4.30;;;13.40;99.90;;;;;;4932123;28;20235;-60
2022/05/10 04:49:54;;;;;;;5.78;3.78;;;13.40;99.90;;;;;;4931804;28;20353;-60
2022/05/10 04:52:21;;;;;;;8.82;4.13;;;13.40;99.90;;;;;;4942605;28;20243;-60
2022/05/10 04:54:48;;;;;;;5.07;3.92;;;13.50;99.90;;;;;;4929745;28;20226;-60
2022/05/10 04:57:15;;;;;;;7.28;4.00;;;13.50;99.90;;;;;;4946627;28;20234;-61
2022/05/10 04:59:42;;;;;;;10.43;4.10;;;13.60;99.90;;;;;;4936006;28;20232;-60
2022/05/10 05:02:10;;;;;;;5.85;3.85;;;13.60;99.90;;;;;;4928867;28;20200;-61
2022/05/10 05:04:37;;;;;;;5.82;4.18;;;13.60;99.90;;;;;;4934555;28;20601;-60
2022/05/10 05:07:04;;;;;;;7.43;4.60;;;13.70;99.90;;;;;;4936152;28;20387;-61
2022/05/10 05:09:31;;;;;;;6.18;4.38;;;13.70;99.90;;;;;;4946568;28;20228;-60
2022/05/10 05:11:58;;;;;;;10.50;4.20;;;13.70;99.90;;;;;;4934262;28;20685;-60
2022/05/10 05:14:25;;;;;;;9.45;4.90;;;13.80;99.90;;;;;;4947060;28;20234;-59
2022/05/10 05:16:54;;;;;;;6.25;4.55;;;13.80;99.90;;;;;;4935251;28;20854;-60
2022/05/10 05:19:23;;;;;;;5.95;4.55;;;13.80;99.90;;;;;;4971980;23;20234;-60
2022/05/10 05:21:50;;;;;;;4.82;4.22;;;13.90;99.90;;;;;;4964705;28;20227;-60
2022/05/10 05:24:16;;;;;;;7.30;4.78;;;14.00;99.90;;;;;;4974691;28;20250;-61
2022/05/10 05:26:43;;;;;;;8.15;4.63;;;14.00;99.90;;;;;;4979758;28;23360;-61
2022/05/10 05:29:10;;;;;;;7.50;4.47;;;14.00;99.90;;;;;;5008490;28;20291;-60
2022/05/10 05:31:37;;;;;;;7.20;4.35;;;14.10;99.90;;;;;;4979947;28;20676;-60
2022/05/10 05:34:04;;;;;;;10.25;4.88;;;14.20;99.90;;;;;;4990822;28;20202;-60
2022/05/10 05:36:32;;;;;;;7.65;5.25;;;14.30;99.90;;;;;;4978436;28;20210;-60
2022/05/10 05:38:59;;;;;;;7.05;4.85;;;14.40;99.90;;;;;;4979634;28;20208;-60
2022/05/10 05:41:26;;;;;;;7.50;4.57;;;14.50;99.90;;;;;;4979572;28;20211;-61
2022/05/10 05:43:53;;;;;;;9.15;4.97;;;14.50;99.90;;;;;;4993956;28;20282;-61
2022/05/10 05:46:20;;;;;;;9.63;4.75;;;14.70;99.90;;;;;;4986927;28;20206;-60
2022/05/10 05:48:47;;;;;;;7.03;4.90;;;14.70;99.90;;;;;;4971495;28;20301;-60
2022/05/10 05:51:14;;;;;;;7.15;5.50;;;14.80;99.90;;;;;;4984370;28;20199;-63
2022/05/10 05:53:42;;;;;;;7.93;5.40;;;14.80;99.90;;;;;;4961583;28;20880;-60
2022/05/10 05:56:11;;;;;;;10.05;5.93;;;14.90;99.90;;;;;;4981614;28;20222;-60
2022/05/10 05:58:39;;;;;;;22.42;6.50;;;15.00;99.90;;;;;;4975187;28;20427;-61
2022/05/10 06:01:17;;;;;;;11.70;5.70;;;15.10;99.90;;;;;;4991420;28;20289;-60
2022/05/10 06:03:44;;;;;;;16.42;6.22;;;15.20;99.90;;;;;;4969232;28;20349;-60
2022/05/10 06:06:12;;;;;;;9.18;5.53;;;15.20;99.90;;;;;;4997732;28;20213;-61
2022/05/10 06:08:39;;;;;;;17.73;6.40;;;15.30;99.90;;;;;;4985558;28;20434;-61
2022/05/10 06:11:07;;;;;;;12.18;5.70;;;15.40;99.90;;;;;;5009067;28;20225;-60
2022/05/10 06:13:36;;;;;;;13.93;6.18;;;15.40;99.90;;;;;;4983519;28;21232;-60
2022/05/10 06:16:06;;;;;;;9.10;6.32;;;15.50;99.90;;;;;;4993479;28;20206;-61
2022/05/10 06:18:32;;;;;;;9.45;5.85;;;15.50;99.90;;;;;;4971179;28;20428;-60
2022/05/10 06:20:59;;;;;;;9.38;6.50;;;15.60;99.90;;;;;;4990278;28;20650;-60
2022/05/10 06:23:26;;;;;;;8.35;6.18;;;15.70;99.90;;;;;;4972750;28;20211;-60
2022/05/10 06:25:53;;;;;;;10.85;7.57;;;15.70;99.90;;;;;;4968655;28;20210;-60
2022/05/10 06:28:21;;;;;;;9.98;6.65;;;15.80;99.90;;;;;;4977165;28;20234;-61
2022/05/10 06:30:48;;;;;;;8.75;7.20;;;15.80;99.90;;;;;;4976535;28;20196;-61
2022/05/10 06:33:16;;;;;;;7.85;6.22;;;15.80;99.90;;;;;;4970393;28;20214;-61
2022/05/10 06:35:44;;;;;;;10.35;7.50;;;15.90;99.90;;;;;;4987650;28;20195;-61
2022/05/10 06:38:27;;;;;;;9.02;7.30;;;15.90;99.90;;;;;;4982673;28;20214;-61
2022/05/10 06:40:54;;;;;;;9.57;6.88;;;15.90;99.90;;;;;;4984482;28;20209;-61
2022/05/10 06:43:22;;;;;;;11.73;7.60;;;15.90;99.90;;;;;;4983292;28;20224;-61
2022/05/10 06:45:50;;;;;;;8.70;6.57;;;16.00;99.90;;;;;;4990216;28;21163;-61
2022/05/10 06:48:17;;;;;;;10.20;6.65;;;16.00;99.90;;;;;;4995297;28;20321;-61
2022/05/10 06:50:46;;;;;;;11.32;7.15;;;16.00;99.90;;;;;;4978397;28;20211;-60
2022/05/10 06:53:13;;;;;;;10.98;7.30;;;16.00;99.90;;;;;;4984659;28;20210;-60
2022/05/10 06:55:41;;;;;;;18.83;7.63;;;16.00;99.90;;;;;;4984950;28;21001;-61
2022/05/10 06:58:09;;;;;;;12.48;7.40;;;16.00;99.90;;;;;;4994150;28;20199;-61
2022/05/10 07:00:39;;;;;;;9.15;6.97;;;16.00;99.90;;;;;;4982147;28;20211;-61
2022/05/10 07:03:07;;;;;;;13.38;8.10;;;16.00;99.90;;;;;;4985302;28;20280;-61
2022/05/10 07:05:35;;;;;;;13.07;7.78;;;16.10;99.90;;;;;;4977284;28;20692;-62
2022/05/10 07:08:01;;;;;;;14.55;8.45;;;16.10;99.90;;;;;;4988241;28;20238;-61
2022/05/10 07:10:28;;;;;;;11.43;7.93;;;16.10;99.90;;;;;;4970538;28;20643;-61
2022/05/10 07:12:55;;;;;;;12.88;7.55;;;16.10;99.90;;;;;;4994453;28;20782;-61
2022/05/10 07:15:23;;;;;;;15.85;8.18;;;16.20;99.90;;;;;;4985209;28;20203;-61
2022/05/10 07:17:52;;;;;;;17.67;8.35;;;16.20;99.90;;;;;;4997779;28;20318;-61
2022/05/10 07:20:20;;;;;;;12.77;8.15;;;16.30;99.90;;;;;;4997749;28;20787;-61
2022/05/10 07:22:48;;;;;;;16.52;8.40;;;16.30;99.90;;;;;;4978909;28;20218;-62
2022/05/10 07:25:18;;;;;;;13.25;8.38;;;16.40;99.90;;;;;;4984650;28;20226;-61
2022/05/10 07:27:45;;;;;;;11.15;8.10;;;16.40;99.90;;;;;;4980979;28;20230;-61
2022/05/10 07:30:14;;;;;;;11.55;8.85;;;16.50;99.90;;;;;;4977538;28;20203;-61
2022/05/10 07:32:41;;;;;;;20.23;9.50;;;16.60;99.90;;;;;;4986522;28;20227;-61
2022/05/10 07:35:10;;;;;;;10.68;8.25;;;16.70;99.90;;;;;;4995223;28;20250;-61
2022/05/10 07:37:38;;;;;;;14.00;9.18;;;16.70;99.90;;;;;;4978187;28;20217;-61
2022/05/10 07:40:07;;;;;;;16.30;9.20;;;16.80;99.90;;;;;;5003648;28;20206;-61
2022/05/10 07:42:33;;;;;;;16.13;9.48;;;16.80;99.90;;;;;;4982346;28;20227;-61
2022/05/10 07:45:01;;;;;;;13.40;9.13;;;16.80;99.90;;;;;;4993306;28;20232;-61
2022/05/10 07:47:27;;;;;;;14.60;10.10;;;16.80;99.90;;;;;;4976017;28;20227;-61
2022/05/10 07:49:54;;;;;;;16.10;10.55;;;16.90;99.90;;;;;;5001106;28;21908;-61
2022/05/10 07:52:23;;;;;;;14.35;9.75;;;16.90;99.90;;;;;;4995473;28;20219;-62
2022/05/10 07:54:49;;;;;;;12.90;9.77;;;17.00;99.90;;;;;;4986868;28;20210;-60
2022/05/10 07:57:17;;;;;;;11.73;9.13;;;17.00;99.90;;;;;;4992473;28;20203;-62
2022/05/10 07:59:44;;;;;;;15.93;9.77;;;17.10;99.90;;;;;;4988343;28;20297;-61
2022/05/10 08:02:11;;;;;;;15.65;10.05;;;17.10;99.90;;;;;;4989776;28;20909;-61
2022/05/10 08:04:37;;;;;;;15.77;10.05;;;17.20;99.90;;;;;;5000106;28;20195;-61
2022/05/10 08:07:04;;;;;;;12.80;9.35;;;17.30;99.90;;;;;;4999999;28;20191;-61
2022/05/10 08:09:33;;;;;;;16.50;9.38;;;17.40;99.90;;;;;;4977789;28;20345;-61
2022/05/10 08:12:00;;;;;;;24.23;9.70;;;17.50;99.90;;;;;;5004604;28;20227;-61
2022/05/10 08:14:27;;;;;;;13.60;9.43;;;17.60;99.90;;;;;;4993482;28;20183;-61
2022/05/10 08:16:54;;;;;;;15.60;9.82;;;17.70;99.90;;;;;;5003046;28;20194;-61
2022/05/10 08:19:21;;;;;;;14.35;10.63;;;17.80;99.90;;;;;;4986578;28;20214;-61
2022/05/10 08:21:48;;;;;;;16.33;9.85;;;17.90;99.90;;;;;;4994928;28;20298;-61
2022/05/10 08:24:15;;;;;;;12.13;8.50;;;18.00;99.90;;;;;;4975588;28;20202;-61
2022/05/10 08:26:43;;;;;;;14.55;9.18;;;18.20;99.90;;;;;;5002324;28;20198;-67
2022/05/10 08:29:10;;;;;;;26.52;8.73;;;18.30;99.90;;;;;;4994818;28;21215;-61
2022/05/10 08:31:37;;;;;;;14.35;8.88;;;18.40;99.90;;;;;;4979079;28;20234;-61
2022/05/10 08:34:04;;;;;;;19.25;9.65;;;18.50;99.90;;;;;;4983869;28;20218;-61
2022/05/10 08:36:30;;;;;;;15.32;8.73;;;18.60;99.90;;;;;;4989136;28;20966;-61
2022/05/10 08:38:57;;;;;;;15.57;9.20;;;18.70;99.90;;;;;;4993478;28;20225;-61
2022/05/10 08:41:30;;;;;;;16.95;10.05;;;18.80;99.90;;;;;;4965989;28;20241;-61
2022/05/10 08:44:04;;;;;;;13.07;8.60;;;18.90;99.90;;;;;;4999781;28;20274;-62
2022/05/10 08:46:34;;;;;;;22.65;8.63;;;19.00;99.90;;;;;;4969478;28;21709;-62
2022/05/10 08:49:05;;;;;;;14.80;8.68;;;19.20;99.90;;;;;;4979702;28;20230;-62
2022/05/10 08:51:32;;;;;;;17.10;8.68;;;19.30;99.90;;;;;;4990514;28;20203;-62
2022/05/10 08:53:59;;;;;;;12.48;9.05;;;19.30;99.90;;;;;;4994427;28;20214;-62
2022/05/10 08:56:31;;;;;;;13.50;8.73;;;19.30;99.90;;;;;;4975765;28;20229;-62
2022/05/10 08:59:07;;;;;;;14.35;8.40;;;19.30;99.90;;;;;;4989823;28;20437;-62
2022/05/10 09:01:40;;;;;;;10.77;7.00;;;19.50;99.90;;;;;;4976747;28;20244;-62
2022/05/10 09:04:21;;;;;;;17.85;7.75;;;19.70;99.90;;;;;;4974900;28;20213;-63
2022/05/10 09:06:55;;;;;;;14.98;7.70;;;19.80;99.90;;;;;;4987442;28;20251;-62
2022/05/10 09:09:27;;;;;;;13.38;6.90;;;19.90;99.90;;;;;;4990027;28;20230;-62
2022/05/10 09:12:04;;;;;;;9.90;6.25;;;20.20;99.90;;;;;;4971111;28;20256;-62
2022/05/10 09:14:36;;;;;;;11.55;6.03;;;20.40;99.90;;;;;;4995821;28;20668;-63
2022/05/10 09:17:05;;;;;;;16.02;5.32;;;20.70;99.90;;;;;;4987790;28;20641;-62
2022/05/10 09:19:39;;;;;;;7.85;4.68;;;20.90;99.90;;;;;;4981036;28;20238;-63
2022/05/10 09:22:16;;;;;;;12.25;4.60;;;20.90;99.90;;;;;;4983503;28;20237;-62
2022/05/10 09:24:50;;;;;;;10.80;5.15;;;20.90;99.90;;;;;;4985988;28;20317;-62
2022/05/10 09:27:18;;;;;;;10.48;4.10;;;20.80;99.90;;;;;;4964340;28;20779;-63
2022/05/10 09:29:48;;;;;;;6.38;3.92;;;20.80;99.90;;;;;;4983260;28;20230;-61
2022/05/10 09:35:15;;;;;;;9.75;3.83;;;20.90;99.90;;;;;;4980030;28;20831;-62
2022/05/10 09:37:45;;;;;;;7.55;3.42;;;20.90;99.90;;;;;;4995115;28;20206;-61
2022/05/10 09:40:30;;;;;;;6.90;3.22;;;20.90;99.90;;;;;;4996985;28;20214;-62
2022/05/10 09:43:13;;;;;;;7.18;3.00;;;20.90;99.90;;;;;;4978298;28;21288;-62
2022/05/10 09:45:43;;;;;;;12.18;3.78;;;20.90;99.90;;;;;;5003819;28;20206;-62
2022/05/10 09:48:17;;;;;;;7.32;3.55;;;21.00;99.90;;;;;;4984803;28;20218;-62
2022/05/10 09:50:46;;;;;;;10.48;3.33;;;21.00;99.90;;;;;;4993683;28;20225;-62
2022/05/10 09:53:20;;;;;;;7.53;3.30;;;20.90;99.90;;;;;;4984905;28;20203;-62
2022/05/10 09:56:00;;;;;;;4.95;3.13;;;21.10;99.90;;;;;;4998769;28;20195;-62
2022/05/10 09:58:30;;;;;;;9.80;3.40;;;21.40;99.90;;;;;;4974053;28;20728;-62
2022/05/10 10:01:00;;;;;;;6.25;3.42;;;21.50;99.90;;;;;;4997893;28;20203;-61
2022/05/10 10:03:28;;;;;;;7.32;2.95;;;21.50;99.90;;;;;;4990066;28;20203;-61
2022/05/10 10:05:57;;;;;;;9.80;2.40;;;21.50;99.90;;;;;;4986809;28;20211;-61
2022/05/10 10:08:42;;;;;;;3.83;2.83;;;21.60;99.90;;;;;;4995213;28;20593;-63
2022/05/10 10:11:26;;;;;;;12.23;2.70;;;21.80;99.90;;;;;;4993185;28;20224;-62
2022/05/10 10:13:55;;;;;;;12.52;2.67;;;22.10;99.90;;;;;;4982896;28;20575;-63
2022/05/10 10:16:26;;;;;;;3.53;2.03;;;22.10;99.90;;;;;;4996626;28;20265;-63
2022/05/10 10:18:55;;;;;;;16.13;3.47;;;22.10;99.90;;;;;;4990126;28;20202;-62
2022/05/10 10:21:28;;;;;;;5.53;3.53;;;22.10;99.90;;;;;;4982892;28;20213;-63
2022/05/10 10:23:59;;;;;;;4.95;3.00;;;22.00;99.90;;;;;;4992530;28;20641;-64
2022/05/10 10:26:33;;;;;;;6.47;2.90;;;22.00;99.90;;;;;;5000390;28;20551;-63
2022/05/10 10:29:11;;;;;;;5.70;3.15;;;21.90;99.90;;;;;;4980325;28;20230;-61
2022/05/10 10:31:42;;;;;;;13.52;3.30;;;22.00;99.90;;;;;;4987825;28;20682;-63
2022/05/10 10:34:19;;;;;;;5.97;3.40;;;21.90;99.90;;;;;;4985301;28;20321;-62
2022/05/10 10:36:52;;;;;;;8.00;3.08;;;21.90;99.90;;;;;;4994642;28;20318;-63
2022/05/10 10:39:25;;;;;;;11.18;3.90;;;21.90;99.90;;;;;;4995909;28;20712;-63
2022/05/10 10:42:01;;;;;;;7.70;3.03;;;22.00;99.90;;;;;;4992797;28;20209;-63
2022/05/10 10:44:29;;;;;;;16.77;4.82;;;22.10;99.90;;;;;;4980256;28;20222;-64
2022/05/10 10:47:08;;;;;;;14.10;4.82;;;22.10;99.90;;;;;;4997453;28;20199;-61
2022/05/10 10:49:42;;;;;;;5.68;3.55;;;22.20;99.90;;;;;;5008892;28;20996;-62
2022/05/10 10:52:09;;;;;;;5.43;3.38;;;22.20;99.90;;;;;;4975917;28;20211;-63
2022/05/10 10:54:37;;;;;;;5.68;3.22;;;22.10;99.90;;;;;;4997461;28;20206;-63
2022/05/10 10:57:27;;;;;;;8.48;3.40;;;22.10;99.90;;;;;;4995258;28;20463;-61
2022/05/10 11:00:08;;;;;;;8.43;3.10;;;22.00;99.90;;;;;;4971244;28;20353;-63
2022/05/10 11:02:57;;;;;;;5.97;3.10;;;22.10;99.90;;;;;;4996739;28;20302;-63
2022/05/10 11:05:58;;;;;;;9.70;3.58;;;22.00;99.90;;;;;;4981644;28;20207;-61
2022/05/10 11:08:46;;;;;;;9.88;3.20;;;22.10;99.90;;;;;;4994076;28;20254;-61
2022/05/10 11:11:22;;;;;;;4.60;3.20;;;22.10;99.90;;;;;;4978424;28;20228;-61
2022/05/10 11:13:58;;;;;;;7.13;2.95;;;22.20;99.90;;;;;;4989166;28;20718;-61
2022/05/10 11:16:39;;;;;;;6.90;3.17;;;22.30;99.90;;;;;;4973383;28;20226;-62
2022/05/10 11:19:38;;;;;;;4.22;2.63;;;22.30;99.90;;;;;;4998051;28;20257;-61
2022/05/10 11:22:15;;;;;;;4.22;2.25;;;22.40;99.90;;;;;;4980259;28;20235;-61
2022/05/10 11:24:51;;;;;;;9.15;2.78;;;22.40;99.90;;;;;;4985704;28;20223;-61
2022/05/10 11:27:37;;;;;;;6.97;2.53;;;22.40;99.90;;;;;;4993468;28;20221;-61
2022/05/10 11:30:08;;;;;;;3.38;2.60;;;22.30;99.90;;;;;;4979485;28;20238;-62
2022/05/10 11:32:58;;;;;;;9.80;2.95;;;22.20;99.90;;;;;;5000236;28;20775;-61
2022/05/10 11:35:55;;;;;;;17.02;3.08;;;22.20;99.90;;;;;;4995060;28;20206;-61
2022/05/10 11:38:43;;;;;;;5.22;2.65;;;22.10;99.90;;;;;;4967469;28;20254;-62
2022/05/10 11:41:16;;;;;;;8.93;3.00;;;22.20;99.90;;;;;;4994935;28;20246;-62
2022/05/10 11:44:17;;;;;;;4.78;2.85;;;22.30;99.90;;;;;;4990811;28;20237;-63
2022/05/10 11:47:10;;;;;;;9.57;4.10;;;22.30;99.90;;;;;;4942749;28;20229;-62
2022/05/10 11:49:56;;;;;;;11.68;3.55;;;22.40;99.90;;;;;;4994473;28;20230;-62
2022/05/10 11:52:38;;;;;;;6.43;3.90;;;22.60;99.90;;;;;;4985792;28;20738;-63
2022/05/10 11:55:16;;;;;;;4.80;3.90;;;22.60;99.90;;;;;;4983581;28;20855;-62
2022/05/10 11:57:43;;;;;;;7.10;3.83;;;22.60;99.90;;;;;;4985599;28;20222;-62
2022/05/10 12:00:38;;;;;;;11.10;4.82;;;22.40;99.90;;;;;;4977591;28;20420;-62
2022/05/10 12:03:10;;;;;;;8.27;3.85;;;22.30;99.90;;;;;;4957850;28;20258;-62
2022/05/10 12:05:39;;;;;;;5.43;4.28;;;22.20;99.90;;;;;;4977576;28;20358;-62
2022/05/10 12:08:36;;;;;;;13.55;4.28;;;22.20;99.90;;;;;;4974306;28;20229;-61
2022/05/10 12:11:32;;;;;;;9.23;3.90;;;22.20;99.90;;;;;;4984402;28;20214;-62
2022/05/10 12:22:58;;;;;;;15.73;4.70;;;21.90;99.90;;;;;;4986747;28;20225;-63
2022/05/10 12:25:54;;;;;;;6.68;4.32;;;21.80;99.90;;;;;;4964810;28;20238;-62
2022/05/10 12:28:45;;;;;;;7.47;4.95;;;21.70;99.90;;;;;;4983469;28;20222;-62
2022/05/10 12:31:51;;;;;;;15.68;5.28;;;21.60;99.90;;;;;;4968943;28;20234;-62
2022/05/10 12:34:43;;;;;;;8.98;5.03;;;21.60;99.90;;;;;;4975169;28;20301;-62
2022/05/10 12:37:51;;;;;;;10.32;4.30;;;21.70;99.90;;;;;;4980135;28;20277;-62
2022/05/10 12:40:24;;;;;;;7.93;3.30;;;21.70;99.90;;;;;;4937347;28;20255;-63
2022/05/10 12:43:30;;;;;;;4.00;3.60;;;21.80;99.90;;;;;;4994470;28;20209;-63
2022/05/10 12:46:00;;;;;;;5.97;3.60;;;21.80;99.90;;;;;;4993544;28;20208;-62
2022/05/10 12:48:47;;;;;;;6.53;3.80;;;21.70;99.90;;;;;;4979442;28;20958;-62
2022/05/10 12:51:34;;;;;;;3.85;3.53;;;21.80;99.90;;;;;;4981452;28;20210;-62
2022/05/10 12:54:03;;;;;;;9.25;3.70;;;21.90;99.90;;;;;;4987721;28;21905;-62
2022/05/10 12:56:32;;;;;;;21.40;4.30;;;21.90;99.90;;;;;;4978336;28;20967;-61
2022/05/10 12:59:06;;;;;;;6.10;4.35;;;22.00;99.90;;;;;;4992775;28;20202;-61
2022/05/10 13:01:35;;;;;;;8.88;4.10;;;22.00;99.90;;;;;;4994764;28;20784;-62
2022/05/10 13:04:12;;;;;;;7.35;3.42;;;22.00;99.90;;;;;;4977782;28;20213;-62
2022/05/10 13:06:50;;;;;;;7.53;3.88;;;22.10;99.90;;;;;;4993605;28;20204;-62
2022/05/10 13:09:39;;;;;;;4.60;3.78;;;22.00;99.90;;;;;;4977043;28;20230;-62
2022/05/10 13:12:10;;;;;;;9.90;3.80;;;22.10;99.90;;;;;;4966711;28;20230;-62
2022/05/10 13:14:40;;;;;;;15.73;4.25;;;22.20;99.90;;;;;;4992751;28;20314;-62
2022/05/10 13:17:08;;;;;;;12.13;4.70;;;22.20;99.90;;;;;;4988908;28;20297;-63
2022/05/10 13:19:42;;;;;;;4.82;3.50;;;22.30;99.90;;;;;;4978282;28;20214;-63
2022/05/10 13:22:15;;;;;;;3.85;3.45;;;22.30;99.90;;;;;;4992075;28;20202;-62
2022/05/10 13:24:44;;;;;;;5.13;3.55;;;22.40;99.90;;;;;;4986688;28;20259;-63